首页
METAR-TAF:

METAR-TAF

机场 :

史密斯堡, 阿肯色州, 美国

纬度: 35-20-01N, 经度: 094-21-54W, 海拔: 142米

当前天气观测

该预报发布于17分钟前的21:53 UTC
风速5节,风向东转东北
温度 11°C
湿度 40%
气压 1031 hPa
能見度: 16.1公里
天空无云

METAR: KFSM 112153Z 06005KT 10SM CLR 11/M02 A3044 RMK AO2 SLP311 T01111017

时间: 16:10 (22:10 UTC)

预报

该预报发布于4小时和50分钟前的17:20 UTC
预报有效从11日的 18点(UTC)到 12日的 18点(UTC)
风速4节,风向东转东北
能見度: 10公里
天空无云
从 11日的 2100点(UTC)
风速5节,风向
能見度: 10公里
天空无云
从 12日的 0600点(UTC)
风速6节,风向
能見度: 10公里
散云层高于25000英尺

TAF: KFSM 111720Z 1118/1218 07004KT P6SM SKC FM112100 17005KT P6SM SKC FM120600 08006KT P6SM SCT250

超过4000个机场的气象观测和天气预报(METAR&TAF报告)。

可查询的气象台以黄色和红色小点在地图上表示。

将鼠标移到小点上方,可查看气象台名称。

然后点击查看天气观测和预报。

如需切换地图:点击带黑十字的绿色按钮放大地图;点击带横线的绿色按钮缩小地图;或者点击绿色箭头查看邻近地区的地图。


METAR-TAF: